sensor_id;sensor_type;location;lat;lon;timestamp;P1;durP1;ratioP1;P2;durP2;ratioP2
68475;SDS011;55464;48.266;14.188;2023-09-19T00:00:37;2.72;;;1.70;;
68475;SDS011;55464;48.266;14.188;2023-09-19T00:06:12;2.28;;;1.60;;
68475;SDS011;55464;48.266;14.188;2023-09-19T00:09:31;2.55;;;1.90;;
68475;SDS011;55464;48.266;14.188;2023-09-19T00:12:47;5.38;;;1.75;;
68475;SDS011;55464;48.266;14.188;2023-09-19T00:15:13;2.78;;;2.05;;
68475;SDS011;55464;48.266;14.188;2023-09-19T00:17:43;4.50;;;2.05;;
68475;SDS011;55464;48.266;14.188;2023-09-19T00:20:09;2.08;;;1.80;;
68475;SDS011;55464;48.266;14.188;2023-09-19T00:22:41;3.17;;;2.43;;
68475;SDS011;55464;48.266;14.188;2023-09-19T00:25:09;2.35;;;1.90;;
68475;SDS011;55464;48.266;14.188;2023-09-19T00:27:39;2.42;;;1.77;;
68475;SDS011;55464;48.266;14.188;2023-09-19T00:30:11;6.28;;;2.10;;
68475;SDS011;55464;48.266;14.188;2023-09-19T00:32:47;3.65;;;1.83;;
68475;SDS011;55464;48.266;14.188;2023-09-19T00:35:13;5.15;;;2.00;;
68475;SDS011;55464;48.266;14.188;2023-09-19T00:37:42;2.30;;;2.03;;
68475;SDS011;55464;48.266;14.188;2023-09-19T00:40:08;2.75;;;1.90;;
68475;SDS011;55464;48.266;14.188;2023-09-19T00:42:44;3.70;;;1.83;;
68475;SDS011;55464;48.266;14.188;2023-09-19T00:45:11;2.50;;;1.85;;
68475;SDS011;55464;48.266;14.188;2023-09-19T00:47:46;2.78;;;2.28;;
68475;SDS011;55464;48.266;14.188;2023-09-19T00:50:20;3.50;;;2.13;;
68475;SDS011;55464;48.266;14.188;2023-09-19T00:52:48;4.45;;;2.28;;
68475;SDS011;55464;48.266;14.188;2023-09-19T00:55:15;6.88;;;2.40;;
68475;SDS011;55464;48.266;14.188;2023-09-19T00:57:44;3.05;;;2.38;;
68475;SDS011;55464;48.266;14.188;2023-09-19T01:00:10;5.18;;;2.17;;
68475;SDS011;55464;48.266;14.188;2023-09-19T01:02:40;3.53;;;1.80;;
68475;SDS011;55464;48.266;14.188;2023-09-19T01:05:07;4.78;;;2.20;;
68475;SDS011;55464;48.266;14.188;2023-09-19T01:07:33;3.30;;;2.00;;
68475;SDS011;55464;48.266;14.188;2023-09-19T01:10:00;3.33;;;1.55;;
68475;SDS011;55464;48.266;14.188;2023-09-19T01:15:40;2.88;;;1.00;;
68475;SDS011;55464;48.266;14.188;2023-09-19T01:18:35;2.00;;;1.10;;
68475;SDS011;55464;48.266;14.188;2023-09-19T01:21:28;3.58;;;1.23;;
68475;SDS011;55464;48.266;14.188;2023-09-19T01:31:59;3.80;;;1.40;;
68475;SDS011;55464;48.266;14.188;2023-09-19T01:37:09;2.70;;;1.00;;
68475;SDS011;55464;48.266;14.188;2023-09-19T01:39:34;3.45;;;1.30;;
68475;SDS011;55464;48.266;14.188;2023-09-19T01:50:17;1.45;;;1.10;;
68475;SDS011;55464;48.266;14.188;2023-09-19T01:53:02;6.07;;;0.93;;
68475;SDS011;55464;48.266;14.188;2023-09-19T01:55:46;2.58;;;1.20;;
68475;SDS011;55464;48.266;14.188;2023-09-19T01:58:20;3.65;;;1.00;;
68475;SDS011;55464;48.266;14.188;2023-09-19T02:00:52;3.63;;;0.90;;
68475;SDS011;55464;48.266;14.188;2023-09-19T02:03:21;4.88;;;1.02;;
68475;SDS011;55464;48.266;14.188;2023-09-19T02:05:51;6.22;;;1.20;;
68475;SDS011;55464;48.266;14.188;2023-09-19T02:08:19;1.20;;;1.10;;
68475;SDS011;55464;48.266;14.188;2023-09-19T02:10:45;1.58;;;0.90;;
68475;SDS011;55464;48.266;14.188;2023-09-19T02:13:15;2.65;;;1.08;;
68475;SDS011;55464;48.266;14.188;2023-09-19T02:15:42;6.57;;;0.95;;
68475;SDS011;55464;48.266;14.188;2023-09-19T02:18:09;2.97;;;1.05;;
68475;SDS011;55464;48.266;14.188;2023-09-19T02:20:36;2.22;;;0.90;;
68475;SDS011;55464;48.266;14.188;2023-09-19T02:23:02;2.00;;;0.98;;
68475;SDS011;55464;48.266;14.188;2023-09-19T02:25:29;4.72;;;1.00;;
68475;SDS011;55464;48.266;14.188;2023-09-19T02:27:56;9.45;;;1.30;;
68475;SDS011;55464;48.266;14.188;2023-09-19T02:30:23;2.55;;;1.30;;
68475;SDS011;55464;48.266;14.188;2023-09-19T02:32:50;3.72;;;1.35;;
68475;SDS011;55464;48.266;14.188;2023-09-19T02:35:16;5.03;;;1.67;;
68475;SDS011;55464;48.266;14.188;2023-09-19T02:37:41;5.60;;;1.63;;
68475;SDS011;55464;48.266;14.188;2023-09-19T02:40:07;4.50;;;1.90;;
68475;SDS011;55464;48.266;14.188;2023-09-19T02:42:44;2.55;;;1.40;;
68475;SDS011;55464;48.266;14.188;2023-09-19T02:45:12;4.78;;;1.65;;
68475;SDS011;55464;48.266;14.188;2023-09-19T02:47:39;5.30;;;1.50;;
68475;SDS011;55464;48.266;14.188;2023-09-19T02:50:05;3.20;;;1.40;;
68475;SDS011;55464;48.266;14.188;2023-09-19T02:52:31;1.90;;;1.60;;
68475;SDS011;55464;48.266;14.188;2023-09-19T02:54:57;6.13;;;1.83;;
68475;SDS011;55464;48.266;14.188;2023-09-19T02:57:22;2.88;;;1.45;;
68475;SDS011;55464;48.266;14.188;2023-09-19T02:59:49;2.10;;;1.83;;
68475;SDS011;55464;48.266;14.188;2023-09-19T03:02:15;2.63;;;1.95;;
68475;SDS011;55464;48.266;14.188;2023-09-19T03:04:41;3.58;;;1.38;;
68475;SDS011;55464;48.266;14.188;2023-09-19T03:07:06;3.40;;;1.70;;
68475;SDS011;55464;48.266;14.188;2023-09-19T03:09:32;6.22;;;1.98;;
68475;SDS011;55464;48.266;14.188;2023-09-19T03:11:57;3.83;;;2.00;;
68475;SDS011;55464;48.266;14.188;2023-09-19T03:14:24;2.35;;;1.90;;
68475;SDS011;55464;48.266;14.188;2023-09-19T03:16:50;4.43;;;2.00;;
68475;SDS011;55464;48.266;14.188;2023-09-19T03:19:17;1.92;;;1.77;;
68475;SDS011;55464;48.266;14.188;2023-09-19T03:21:43;7.65;;;1.73;;
68475;SDS011;55464;48.266;14.188;2023-09-19T03:24:08;3.28;;;1.77;;
68475;SDS011;55464;48.266;14.188;2023-09-19T03:26:34;3.30;;;1.92;;
68475;SDS011;55464;48.266;14.188;2023-09-19T03:29:02;4.40;;;1.83;;
68475;SDS011;55464;48.266;14.188;2023-09-19T03:31:31;3.15;;;1.80;;
68475;SDS011;55464;48.266;14.188;2023-09-19T03:33:57;3.38;;;1.88;;
68475;SDS011;55464;48.266;14.188;2023-09-19T03:36:22;5.45;;;2.08;;
68475;SDS011;55464;48.266;14.188;2023-09-19T03:38:48;3.20;;;2.33;;
68475;SDS011;55464;48.266;14.188;2023-09-19T03:41:13;2.88;;;2.08;;
68475;SDS011;55464;48.266;14.188;2023-09-19T03:43:42;5.25;;;2.63;;
68475;SDS011;55464;48.266;14.188;2023-09-19T03:46:07;2.78;;;2.10;;
68475;SDS011;55464;48.266;14.188;2023-09-19T03:48:33;7.60;;;2.53;;
68475;SDS011;55464;48.266;14.188;2023-09-19T03:50:58;2.47;;;2.05;;
68475;SDS011;55464;48.266;14.188;2023-09-19T03:53:24;7.18;;;2.75;;
68475;SDS011;55464;48.266;14.188;2023-09-19T03:55:49;3.40;;;2.30;;
68475;SDS011;55464;48.266;14.188;2023-09-19T03:58:15;4.82;;;2.40;;
68475;SDS011;55464;48.266;14.188;2023-09-19T04:00:40;3.63;;;2.08;;
68475;SDS011;55464;48.266;14.188;2023-09-19T04:03:06;4.32;;;2.20;;
68475;SDS011;55464;48.266;14.188;2023-09-19T04:05:32;4.63;;;2.30;;
68475;SDS011;55464;48.266;14.188;2023-09-19T04:07:58;4.32;;;2.33;;
68475;SDS011;55464;48.266;14.188;2023-09-19T04:10:24;4.28;;;1.90;;
68475;SDS011;55464;48.266;14.188;2023-09-19T04:12:50;2.42;;;1.95;;
68475;SDS011;55464;48.266;14.188;2023-09-19T04:15:18;3.35;;;2.20;;
68475;SDS011;55464;48.266;14.188;2023-09-19T04:17:43;5.28;;;1.98;;
68475;SDS011;55464;48.266;14.188;2023-09-19T04:20:09;4.22;;;2.40;;
68475;SDS011;55464;48.266;14.188;2023-09-19T04:22:37;2.58;;;2.08;;
68475;SDS011;55464;48.266;14.188;2023-09-19T04:25:03;4.85;;;1.88;;
68475;SDS011;55464;48.266;14.188;2023-09-19T04:27:31;2.88;;;2.25;;
68475;SDS011;55464;48.266;14.188;2023-09-19T04:29:57;3.65;;;2.40;;
68475;SDS011;55464;48.266;14.188;2023-09-19T04:32:24;4.03;;;2.45;;
68475;SDS011;55464;48.266;14.188;2023-09-19T04:34:53;6.68;;;2.20;;
68475;SDS011;55464;48.266;14.188;2023-09-19T04:37:19;4.57;;;2.38;;
68475;SDS011;55464;48.266;14.188;2023-09-19T04:39:44;6.93;;;2.92;;
68475;SDS011;55464;48.266;14.188;2023-09-19T04:42:12;3.80;;;2.55;;
68475;SDS011;55464;48.266;14.188;2023-09-19T04:44:39;5.03;;;2.72;;
68475;SDS011;55464;48.266;14.188;2023-09-19T04:47:05;3.08;;;2.50;;
68475;SDS011;55464;48.266;14.188;2023-09-19T04:49:31;5.88;;;2.67;;
68475;SDS011;55464;48.266;14.188;2023-09-19T04:51:56;3.20;;;2.22;;
68475;SDS011;55464;48.266;14.188;2023-09-19T04:54:22;2.88;;;2.03;;
68475;SDS011;55464;48.266;14.188;2023-09-19T04:56:48;7.68;;;2.25;;
68475;SDS011;55464;48.266;14.188;2023-09-19T04:59:13;3.63;;;2.40;;
68475;SDS011;55464;48.266;14.188;2023-09-19T05:01:40;4.97;;;2.35;;
68475;SDS011;55464;48.266;14.188;2023-09-19T05:04:05;3.22;;;2.10;;
68475;SDS011;55464;48.266;14.188;2023-09-19T05:06:31;6.00;;;2.22;;
68475;SDS011;55464;48.266;14.188;2023-09-19T05:08:57;5.22;;;2.40;;
68475;SDS011;55464;48.266;14.188;2023-09-19T05:11:22;2.70;;;2.20;;
68475;SDS011;55464;48.266;14.188;2023-09-19T05:13:49;4.57;;;2.25;;
68475;SDS011;55464;48.266;14.188;2023-09-19T05:16:16;2.08;;;1.55;;
68475;SDS011;55464;48.266;14.188;2023-09-19T05:18:42;6.25;;;2.20;;
68475;SDS011;55464;48.266;14.188;2023-09-19T05:21:07;5.88;;;1.95;;
68475;SDS011;55464;48.266;14.188;2023-09-19T05:23:33;1.83;;;1.58;;
68475;SDS011;55464;48.266;14.188;2023-09-19T05:25:59;4.30;;;1.83;;
68475;SDS011;55464;48.266;14.188;2023-09-19T05:28:25;4.78;;;1.83;;
68475;SDS011;55464;48.266;14.188;2023-09-19T05:30:52;2.10;;;1.45;;
68475;SDS011;55464;48.266;14.188;2023-09-19T05:33:18;3.42;;;2.10;;
68475;SDS011;55464;48.266;14.188;2023-09-19T05:35:45;4.45;;;1.77;;
68475;SDS011;55464;48.266;14.188;2023-09-19T05:38:13;4.78;;;2.05;;
68475;SDS011;55464;48.266;14.188;2023-09-19T05:40:39;5.25;;;1.67;;
68475;SDS011;55464;48.266;14.188;2023-09-19T05:43:09;3.28;;;1.20;;
68475;SDS011;55464;48.266;14.188;2023-09-19T05:45:35;3.65;;;1.52;;
68475;SDS011;55464;48.266;14.188;2023-09-19T05:48:08;2.67;;;1.50;;
68475;SDS011;55464;48.266;14.188;2023-09-19T05:50:41;2.97;;;1.13;;
68475;SDS011;55464;48.266;14.188;2023-09-19T05:53:07;2.67;;;1.55;;
68475;SDS011;55464;48.266;14.188;2023-09-19T05:55:33;3.47;;;1.70;;
68475;SDS011;55464;48.266;14.188;2023-09-19T05:57:59;2.65;;;1.13;;
68475;SDS011;55464;48.266;14.188;2023-09-19T06:00:25;3.05;;;1.20;;
68475;SDS011;55464;48.266;14.188;2023-09-19T06:05:18;3.28;;;1.33;;
68475;SDS011;55464;48.266;14.188;2023-09-19T06:07:45;3.00;;;2.65;;
68475;SDS011;55464;48.266;14.188;2023-09-19T06:10:12;1.60;;;1.23;;
68475;SDS011;55464;48.266;14.188;2023-09-19T06:12:41;2.10;;;1.60;;
68475;SDS011;55464;48.266;14.188;2023-09-19T06:15:11;3.85;;;1.30;;
68475;SDS011;55464;48.266;14.188;2023-09-19T06:17:46;1.55;;;1.23;;
68475;SDS011;55464;48.266;14.188;2023-09-19T06:20:16;5.72;;;1.30;;
68475;SDS011;55464;48.266;14.188;2023-09-19T06:22:42;4.10;;;1.20;;
68475;SDS011;55464;48.266;14.188;2023-09-19T06:25:09;1.15;;;1.00;;
68475;SDS011;55464;48.266;14.188;2023-09-19T06:27:37;3.13;;;1.40;;
68475;SDS011;55464;48.266;14.188;2023-09-19T06:30:04;4.03;;;1.83;;
68475;SDS011;55464;48.266;14.188;2023-09-19T06:32:31;1.65;;;1.30;;
68475;SDS011;55464;48.266;14.188;2023-09-19T06:34:57;5.88;;;1.38;;
68475;SDS011;55464;48.266;14.188;2023-09-19T06:37:26;3.03;;;1.63;;
68475;SDS011;55464;48.266;14.188;2023-09-19T06:39:53;1.50;;;1.40;;
68475;SDS011;55464;48.266;14.188;2023-09-19T06:42:18;3.13;;;1.65;;
68475;SDS011;55464;48.266;14.188;2023-09-19T06:44:44;4.38;;;1.73;;
68475;SDS011;55464;48.266;14.188;2023-09-19T06:47:09;3.05;;;1.50;;
68475;SDS011;55464;48.266;14.188;2023-09-19T06:49:35;4.20;;;1.70;;
68475;SDS011;55464;48.266;14.188;2023-09-19T06:52:01;3.08;;;1.75;;
68475;SDS011;55464;48.266;14.188;2023-09-19T06:54:27;3.08;;;1.42;;
68475;SDS011;55464;48.266;14.188;2023-09-19T06:56:58;2.08;;;1.58;;
68475;SDS011;55464;48.266;14.188;2023-09-19T06:59:24;17.98;;;2.22;;
68475;SDS011;55464;48.266;14.188;2023-09-19T07:01:49;5.07;;;1.98;;
68475;SDS011;55464;48.266;14.188;2023-09-19T07:04:16;4.90;;;1.77;;
68475;SDS011;55464;48.266;14.188;2023-09-19T07:06:44;6.93;;;1.70;;
68475;SDS011;55464;48.266;14.188;2023-09-19T07:09:14;3.58;;;2.17;;
68475;SDS011;55464;48.266;14.188;2023-09-19T07:11:40;3.65;;;1.50;;
68475;SDS011;55464;48.266;14.188;2023-09-19T07:14:06;1.70;;;1.52;;
68475;SDS011;55464;48.266;14.188;2023-09-19T07:16:31;1.92;;;1.40;;
68475;SDS011;55464;48.266;14.188;2023-09-19T07:18:57;1.75;;;1.42;;
68475;SDS011;55464;48.266;14.188;2023-09-19T07:21:23;3.13;;;1.48;;
68475;SDS011;55464;48.266;14.188;2023-09-19T07:23:49;2.05;;;1.50;;
68475;SDS011;55464;48.266;14.188;2023-09-19T07:26:15;2.80;;;1.48;;
68475;SDS011;55464;48.266;14.188;2023-09-19T07:28:42;6.18;;;1.65;;
68475;SDS011;55464;48.266;14.188;2023-09-19T07:31:07;2.72;;;1.50;;
68475;SDS011;55464;48.266;14.188;2023-09-19T07:33:35;3.35;;;1.45;;
68475;SDS011;55464;48.266;14.188;2023-09-19T07:36:01;4.20;;;1.42;;
68475;SDS011;55464;48.266;14.188;2023-09-19T07:38:27;1.58;;;1.45;;
68475;SDS011;55464;48.266;14.188;2023-09-19T07:40:59;3.35;;;1.58;;
68475;SDS011;55464;48.266;14.188;2023-09-19T07:43:25;3.65;;;1.63;;
68475;SDS011;55464;48.266;14.188;2023-09-19T07:45:51;1.42;;;1.33;;
68475;SDS011;55464;48.266;14.188;2023-09-19T07:48:17;8.85;;;1.70;;
68475;SDS011;55464;48.266;14.188;2023-09-19T07:50:43;2.70;;;1.40;;
68475;SDS011;55464;48.266;14.188;2023-09-19T07:53:09;3.30;;;1.58;;
68475;SDS011;55464;48.266;14.188;2023-09-19T07:55:35;2.08;;;1.30;;
68475;SDS011;55464;48.266;14.188;2023-09-19T07:58:01;3.92;;;1.63;;
68475;SDS011;55464;48.266;14.188;2023-09-19T08:00:28;2.78;;;1.55;;
68475;SDS011;55464;48.266;14.188;2023-09-19T08:02:54;4.38;;;1.60;;
68475;SDS011;55464;48.266;14.188;2023-09-19T08:05:19;4.65;;;1.42;;
68475;SDS011;55464;48.266;14.188;2023-09-19T08:07:45;6.50;;;2.35;;
68475;SDS011;55464;48.266;14.188;2023-09-19T08:10:14;4.47;;;1.90;;
68475;SDS011;55464;48.266;14.188;2023-09-19T08:12:44;4.22;;;1.30;;
68475;SDS011;55464;48.266;14.188;2023-09-19T08:15:16;2.95;;;1.60;;
68475;SDS011;55464;48.266;14.188;2023-09-19T08:17:42;2.63;;;1.50;;
68475;SDS011;55464;48.266;14.188;2023-09-19T08:20:09;3.47;;;2.22;;
68475;SDS011;55464;48.266;14.188;2023-09-19T08:22:52;1.67;;;1.52;;
68475;SDS011;55464;48.266;14.188;2023-09-19T08:25:22;3.53;;;1.58;;
68475;SDS011;55464;48.266;14.188;2023-09-19T08:27:48;3.90;;;1.40;;
68475;SDS011;55464;48.266;14.188;2023-09-19T08:30:19;3.65;;;1.70;;
68475;SDS011;55464;48.266;14.188;2023-09-19T08:33:01;2.72;;;1.35;;
68475;SDS011;55464;48.266;14.188;2023-09-19T08:35:29;5.13;;;1.60;;
68475;SDS011;55464;48.266;14.188;2023-09-19T08:37:55;5.40;;;1.52;;
68475;SDS011;55464;48.266;14.188;2023-09-19T08:40:21;2.30;;;1.30;;
68475;SDS011;55464;48.266;14.188;2023-09-19T08:42:50;2.85;;;1.52;;
68475;SDS011;55464;48.266;14.188;2023-09-19T08:45:19;2.08;;;1.40;;
68475;SDS011;55464;48.266;14.188;2023-09-19T08:51:20;6.88;;;1.42;;
68475;SDS011;55464;48.266;14.188;2023-09-19T08:54:19;1.17;;;1.00;;
68475;SDS011;55464;48.266;14.188;2023-09-19T08:56:56;5.13;;;1.23;;
68475;SDS011;55464;48.266;14.188;2023-09-19T08:59:30;1.45;;;1.10;;
68475;SDS011;55464;48.266;14.188;2023-09-19T09:02:00;1.30;;;1.10;;
68475;SDS011;55464;48.266;14.188;2023-09-19T09:04:26;2.75;;;1.02;;
68475;SDS011;55464;48.266;14.188;2023-09-19T09:06:53;7.57;;;1.35;;
68475;SDS011;55464;48.266;14.188;2023-09-19T09:09:20;1.70;;;0.93;;
68475;SDS011;55464;48.266;14.188;2023-09-19T09:11:47;2.08;;;1.35;;
68475;SDS011;55464;48.266;14.188;2023-09-19T09:14:18;5.22;;;1.20;;
68475;SDS011;55464;48.266;14.188;2023-09-19T09:16:49;2.85;;;1.20;;
68475;SDS011;55464;48.266;14.188;2023-09-19T09:19:15;4.00;;;1.40;;
68475;SDS011;55464;48.266;14.188;2023-09-19T09:21:49;2.22;;;1.00;;
68475;SDS011;55464;48.266;14.188;2023-09-19T09:24:27;1.25;;;1.00;;
68475;SDS011;55464;48.266;14.188;2023-09-19T09:26:58;3.38;;;1.17;;
68475;SDS011;55464;48.266;14.188;2023-09-19T09:29:58;2.80;;;0.98;;
68475;SDS011;55464;48.266;14.188;2023-09-19T09:35:01;5.85;;;1.65;;
68475;SDS011;55464;48.266;14.188;2023-09-19T09:37:34;1.10;;;0.80;;
68475;SDS011;55464;48.266;14.188;2023-09-19T09:40:03;3.55;;;1.27;;
68475;SDS011;55464;48.266;14.188;2023-09-19T09:42:42;2.83;;;1.30;;
68475;SDS011;55464;48.266;14.188;2023-09-19T09:45:23;2.08;;;1.35;;
68475;SDS011;55464;48.266;14.188;2023-09-19T09:47:58;4.15;;;1.38;;
68475;SDS011;55464;48.266;14.188;2023-09-19T09:50:29;4.50;;;1.42;;
68475;SDS011;55464;48.266;14.188;2023-09-19T09:53:25;1.65;;;0.85;;
68475;SDS011;55464;48.266;14.188;2023-09-19T09:56:05;1.55;;;1.33;;
68475;SDS011;55464;48.266;14.188;2023-09-19T09:58:35;3.78;;;1.08;;
68475;SDS011;55464;48.266;14.188;2023-09-19T10:01:03;3.00;;;1.23;;
68475;SDS011;55464;48.266;14.188;2023-09-19T10:03:39;4.03;;;1.30;;
68475;SDS011;55464;48.266;14.188;2023-09-19T10:06:09;1.58;;;1.27;;
68475;SDS011;55464;48.266;14.188;2023-09-19T10:09:02;5.03;;;1.38;;
68475;SDS011;55464;48.266;14.188;2023-09-19T10:11:43;2.10;;;1.13;;
68475;SDS011;55464;48.266;14.188;2023-09-19T10:14:16;3.63;;;1.35;;
68475;SDS011;55464;48.266;14.188;2023-09-19T10:16:48;2.90;;;1.17;;
68475;SDS011;55464;48.266;14.188;2023-09-19T10:19:24;1.52;;;1.40;;
68475;SDS011;55464;48.266;14.188;2023-09-19T10:21:58;3.17;;;1.20;;
68475;SDS011;55464;48.266;14.188;2023-09-19T10:24:26;4.97;;;1.00;;
68475;SDS011;55464;48.266;14.188;2023-09-19T10:26:53;1.60;;;0.98;;
68475;SDS011;55464;48.266;14.188;2023-09-19T10:29:20;1.10;;;1.00;;
68475;SDS011;55464;48.266;14.188;2023-09-19T10:31:49;5.25;;;1.10;;
68475;SDS011;55464;48.266;14.188;2023-09-19T10:34:18;1.95;;;0.90;;
68475;SDS011;55464;48.266;14.188;2023-09-19T10:36:47;4.00;;;1.20;;
68475;SDS011;55464;48.266;14.188;2023-09-19T10:39:16;1.90;;;0.90;;
68475;SDS011;55464;48.266;14.188;2023-09-19T10:41:51;1.52;;;0.90;;
68475;SDS011;55464;48.266;14.188;2023-09-19T10:44:24;2.47;;;1.20;;
68475;SDS011;55464;48.266;14.188;2023-09-19T10:46:50;1.30;;;1.10;;
68475;SDS011;55464;48.266;14.188;2023-09-19T10:49:18;2.47;;;0.75;;
68475;SDS011;55464;48.266;14.188;2023-09-19T10:51:44;2.08;;;1.17;;
68475;SDS011;55464;48.266;14.188;2023-09-19T10:54:15;1.30;;;1.00;;
68475;SDS011;55464;48.266;14.188;2023-09-19T10:59:21;1.67;;;1.10;;
68475;SDS011;55464;48.266;14.188;2023-09-19T11:01:50;0.85;;;0.85;;
68475;SDS011;55464;48.266;14.188;2023-09-19T11:07:01;2.75;;;1.20;;
68475;SDS011;55464;48.266;14.188;2023-09-19T11:09:46;2.05;;;1.00;;
68475;SDS011;55464;48.266;14.188;2023-09-19T11:15:02;1.08;;;0.93;;
68475;SDS011;55464;48.266;14.188;2023-09-19T11:17:36;2.55;;;0.90;;
68475;SDS011;55464;48.266;14.188;2023-09-19T11:36:04;0.98;;;0.90;;
68475;SDS011;55464;48.266;14.188;2023-09-19T11:46:34;4.22;;;1.20;;
68475;SDS011;55464;48.266;14.188;2023-09-19T11:49:16;2.70;;;1.13;;
68475;SDS011;55464;48.266;14.188;2023-09-19T11:51:48;2.58;;;1.10;;
68475;SDS011;55464;48.266;14.188;2023-09-19T11:54:19;0.85;;;0.85;;
68475;SDS011;55464;48.266;14.188;2023-09-19T11:56:53;1.25;;;0.90;;
68475;SDS011;55464;48.266;14.188;2023-09-19T11:59:20;2.60;;;1.05;;
68475;SDS011;55464;48.266;14.188;2023-09-19T12:01:53;2.38;;;0.85;;
68475;SDS011;55464;48.266;14.188;2023-09-19T12:04:43;1.38;;;0.90;;
68475;SDS011;55464;48.266;14.188;2023-09-19T12:07:11;1.80;;;0.75;;
68475;SDS011;55464;48.266;14.188;2023-09-19T12:09:47;2.47;;;1.38;;
68475;SDS011;55464;48.266;14.188;2023-09-19T12:14:49;0.90;;;0.80;;
68475;SDS011;55464;48.266;14.188;2023-09-19T12:17:16;0.68;;;0.68;;
68475;SDS011;55464;48.266;14.188;2023-09-19T12:19:50;0.95;;;0.65;;
68475;SDS011;55464;48.266;14.188;2023-09-19T12:22:17;1.27;;;0.70;;
68475;SDS011;55464;48.266;14.188;2023-09-19T12:24:44;2.05;;;1.08;;
68475;SDS011;55464;48.266;14.188;2023-09-19T12:27:10;5.20;;;0.90;;
68475;SDS011;55464;48.266;14.188;2023-09-19T12:32:16;1.30;;;0.82;;
68475;SDS011;55464;48.266;14.188;2023-09-19T12:34:50;2.03;;;1.00;;
68475;SDS011;55464;48.266;14.188;2023-09-19T12:37:17;0.80;;;0.80;;
68475;SDS011;55464;48.266;14.188;2023-09-19T12:39:48;2.75;;;1.20;;
68475;SDS011;55464;48.266;14.188;2023-09-19T12:42:16;4.03;;;0.80;;
68475;SDS011;55464;48.266;14.188;2023-09-19T12:44:45;2.95;;;0.98;;
68475;SDS011;55464;48.266;14.188;2023-09-19T12:47:12;1.33;;;0.90;;
68475;SDS011;55464;48.266;14.188;2023-09-19T12:52:59;2.58;;;0.85;;
68475;SDS011;55464;48.266;14.188;2023-09-19T12:55:29;0.90;;;0.80;;
68475;SDS011;55464;48.266;14.188;2023-09-19T13:00:43;1.67;;;1.00;;
68475;SDS011;55464;48.266;14.188;2023-09-19T13:05:50;1.50;;;0.87;;
68475;SDS011;55464;48.266;14.188;2023-09-19T13:11:10;3.10;;;1.00;;
68475;SDS011;55464;48.266;14.188;2023-09-19T13:16:13;2.60;;;0.90;;
68475;SDS011;55464;48.266;14.188;2023-09-19T13:18:47;0.70;;;0.70;;
68475;SDS011;55464;48.266;14.188;2023-09-19T13:21:27;2.72;;;1.00;;
68475;SDS011;55464;48.266;14.188;2023-09-19T13:24:24;2.30;;;0.70;;
68475;SDS011;55464;48.266;14.188;2023-09-19T13:26:54;1.95;;;0.80;;
68475;SDS011;55464;48.266;14.188;2023-09-19T13:29:21;2.42;;;0.73;;
68475;SDS011;55464;48.266;14.188;2023-09-19T13:31:50;1.13;;;0.70;;
68475;SDS011;55464;48.266;14.188;2023-09-19T13:34:18;1.65;;;0.40;;
68475;SDS011;55464;48.266;14.188;2023-09-19T13:36:44;9.10;;;0.90;;
68475;SDS011;55464;48.266;14.188;2023-09-19T13:39:10;6.20;;;0.70;;
68475;SDS011;55464;48.266;14.188;2023-09-19T13:41:38;1.70;;;0.70;;
68475;SDS011;55464;48.266;14.188;2023-09-19T13:44:04;1.58;;;0.40;;
68475;SDS011;55464;48.266;14.188;2023-09-19T13:46:30;3.10;;;0.60;;
68475;SDS011;55464;48.266;14.188;2023-09-19T13:49:07;2.17;;;0.60;;
68475;SDS011;55464;48.266;14.188;2023-09-19T13:51:38;1.70;;;1.02;;
68475;SDS011;55464;48.266;14.188;2023-09-19T13:54:08;1.02;;;0.35;;
68475;SDS011;55464;48.266;14.188;2023-09-19T13:56:34;4.57;;;0.65;;
68475;SDS011;55464;48.266;14.188;2023-09-19T13:58:59;1.52;;;0.60;;
68475;SDS011;55464;48.266;14.188;2023-09-19T14:01:25;3.70;;;0.50;;
68475;SDS011;55464;48.266;14.188;2023-09-19T14:03:52;1.90;;;0.68;;
68475;SDS011;55464;48.266;14.188;2023-09-19T14:06:19;3.58;;;0.60;;
68475;SDS011;55464;48.266;14.188;2023-09-19T14:08:44;3.95;;;0.50;;
68475;SDS011;55464;48.266;14.188;2023-09-19T14:11:15;1.35;;;0.40;;
68475;SDS011;55464;48.266;14.188;2023-09-19T14:13:41;1.98;;;0.40;;
68475;SDS011;55464;48.266;14.188;2023-09-19T14:16:11;0.52;;;0.50;;
68475;SDS011;55464;48.266;14.188;2023-09-19T14:18:37;5.18;;;0.70;;
68475;SDS011;55464;48.266;14.188;2023-09-19T14:21:03;0.63;;;0.60;;
68475;SDS011;55464;48.266;14.188;2023-09-19T14:23:34;1.02;;;0.40;;
68475;SDS011;55464;48.266;14.188;2023-09-19T14:26:01;0.55;;;0.40;;
68475;SDS011;55464;48.266;14.188;2023-09-19T14:28:26;0.75;;;0.40;;
68475;SDS011;55464;48.266;14.188;2023-09-19T14:30:52;0.63;;;0.50;;
68475;SDS011;55464;48.266;14.188;2023-09-19T14:33:17;0.50;;;0.50;;
68475;SDS011;55464;48.266;14.188;2023-09-19T14:35:43;1.85;;;0.43;;
68475;SDS011;55464;48.266;14.188;2023-09-19T14:38:08;0.95;;;0.70;;
68475;SDS011;55464;48.266;14.188;2023-09-19T14:40:34;2.10;;;0.80;;
68475;SDS011;55464;48.266;14.188;2023-09-19T14:43:01;3.15;;;0.63;;
68475;SDS011;55464;48.266;14.188;2023-09-19T14:45:27;1.60;;;0.60;;
68475;SDS011;55464;48.266;14.188;2023-09-19T14:47:53;1.67;;;0.82;;
68475;SDS011;55464;48.266;14.188;2023-09-19T14:50:21;4.13;;;0.70;;
68475;SDS011;55464;48.266;14.188;2023-09-19T14:52:47;3.38;;;0.60;;
68475;SDS011;55464;48.266;14.188;2023-09-19T14:55:15;3.80;;;0.45;;
68475;SDS011;55464;48.266;14.188;2023-09-19T14:57:41;2.90;;;0.65;;
68475;SDS011;55464;48.266;14.188;2023-09-19T15:00:10;0.73;;;0.50;;
68475;SDS011;55464;48.266;14.188;2023-09-19T15:02:37;0.63;;;0.57;;
68475;SDS011;55464;48.266;14.188;2023-09-19T15:05:05;0.95;;;0.40;;
68475;SDS011;55464;48.266;14.188;2023-09-19T15:07:33;2.45;;;0.52;;
68475;SDS011;55464;48.266;14.188;2023-09-19T15:10:03;1.95;;;0.70;;
68475;SDS011;55464;48.266;14.188;2023-09-19T15:12:32;3.95;;;0.57;;
68475;SDS011;55464;48.266;14.188;2023-09-19T15:14:58;5.85;;;0.73;;
68475;SDS011;55464;48.266;14.188;2023-09-19T15:17:23;2.92;;;0.60;;
68475;SDS011;55464;48.266;14.188;2023-09-19T15:19:50;2.15;;;0.88;;
68475;SDS011;55464;48.266;14.188;2023-09-19T15:22:16;0.70;;;0.60;;
68475;SDS011;55464;48.266;14.188;2023-09-19T15:24:41;2.22;;;0.98;;
68475;SDS011;55464;48.266;14.188;2023-09-19T15:27:07;2.05;;;0.70;;
68475;SDS011;55464;48.266;14.188;2023-09-19T15:29:32;2.20;;;0.57;;
68475;SDS011;55464;48.266;14.188;2023-09-19T15:31:58;0.50;;;0.50;;
68475;SDS011;55464;48.266;14.188;2023-09-19T15:34:27;5.35;;;0.75;;
68475;SDS011;55464;48.266;14.188;2023-09-19T15:36:53;2.88;;;0.63;;
68475;SDS011;55464;48.266;14.188;2023-09-19T15:39:19;1.67;;;0.75;;
68475;SDS011;55464;48.266;14.188;2023-09-19T15:41:47;2.03;;;0.60;;
68475;SDS011;55464;48.266;14.188;2023-09-19T15:44:16;1.40;;;0.77;;
68475;SDS011;55464;48.266;14.188;2023-09-19T15:46:46;1.05;;;0.77;;
68475;SDS011;55464;48.266;14.188;2023-09-19T15:49:12;1.63;;;0.50;;
68475;SDS011;55464;48.266;14.188;2023-09-19T15:51:38;0.90;;;0.70;;
68475;SDS011;55464;48.266;14.188;2023-09-19T15:54:09;0.82;;;0.70;;
68475;SDS011;55464;48.266;14.188;2023-09-19T15:56:40;0.90;;;0.75;;
68475;SDS011;55464;48.266;14.188;2023-09-19T15:59:09;1.77;;;0.60;;
68475;SDS011;55464;48.266;14.188;2023-09-19T16:01:38;0.82;;;0.60;;
68475;SDS011;55464;48.266;14.188;2023-09-19T16:04:08;1.95;;;0.65;;
68475;SDS011;55464;48.266;14.188;2023-09-19T16:06:36;3.03;;;1.15;;
68475;SDS011;55464;48.266;14.188;2023-09-19T16:09:06;0.95;;;0.68;;